sensor_id;sensor_type;location;lat;lon;timestamp;P1;durP1;ratioP1;P2;durP2;ratioP2
46597;SDS011;32318;48.858;8.252;2022-11-24T00:07:15;20.27;;;2.37;;
46597;SDS011;32318;48.858;8.252;2022-11-24T00:15:15;13.25;;;2.30;;
46597;SDS011;32318;48.858;8.252;2022-11-24T00:23:15;14.68;;;2.30;;
46597;SDS011;32318;48.858;8.252;2022-11-24T00:31:35;14.13;;;2.17;;
46597;SDS011;32318;48.858;8.252;2022-11-24T00:39:36;11.65;;;1.90;;
46597;SDS011;32318;48.858;8.252;2022-11-24T00:47:37;14.20;;;1.73;;
46597;SDS011;32318;48.858;8.252;2022-11-24T00:55:37;21.15;;;2.58;;
46597;SDS011;32318;48.858;8.252;2022-11-24T01:03:37;10.38;;;1.77;;
46597;SDS011;32318;48.858;8.252;2022-11-24T01:11:38;14.93;;;1.48;;
46597;SDS011;32318;48.858;8.252;2022-11-24T01:19:57;12.07;;;1.48;;
46597;SDS011;32318;48.858;8.252;2022-11-24T01:27:57;12.00;;;1.40;;
46597;SDS011;32318;48.858;8.252;2022-11-24T01:35:57;10.25;;;1.80;;
46597;SDS011;32318;48.858;8.252;2022-11-24T01:43:58;14.40;;;2.10;;
46597;SDS011;32318;48.858;8.252;2022-11-24T01:52:00;8.40;;;1.40;;
46597;SDS011;32318;48.858;8.252;2022-11-24T02:00:13;12.35;;;1.67;;
46597;SDS011;32318;48.858;8.252;2022-11-24T02:09:02;12.02;;;1.90;;
46597;SDS011;32318;48.858;8.252;2022-11-24T02:16:48;11.38;;;2.13;;
46597;SDS011;32318;48.858;8.252;2022-11-24T02:24:51;13.50;;;1.65;;
46597;SDS011;32318;48.858;8.252;2022-11-24T02:33:00;8.98;;;1.60;;
46597;SDS011;32318;48.858;8.252;2022-11-24T02:41:05;15.35;;;2.25;;
46597;SDS011;32318;48.858;8.252;2022-11-24T02:49:10;14.50;;;1.67;;
46597;SDS011;32318;48.858;8.252;2022-11-24T02:57:10;16.83;;;1.92;;
46597;SDS011;32318;48.858;8.252;2022-11-24T03:05:11;13.25;;;2.28;;
46597;SDS011;32318;48.858;8.252;2022-11-24T03:13:12;8.60;;;1.90;;
46597;SDS011;32318;48.858;8.252;2022-11-24T03:21:12;22.85;;;2.35;;
46597;SDS011;32318;48.858;8.252;2022-11-24T03:29:13;20.35;;;3.30;;
46597;SDS011;32318;48.858;8.252;2022-11-24T03:37:13;14.70;;;2.90;;
46597;SDS011;32318;48.858;8.252;2022-11-24T03:45:13;11.65;;;1.90;;
46597;SDS011;32318;48.858;8.252;2022-11-24T03:53:14;18.70;;;2.42;;
46597;SDS011;32318;48.858;8.252;2022-11-24T04:01:14;10.65;;;2.28;;
46597;SDS011;32318;48.858;8.252;2022-11-24T04:09:14;15.07;;;2.72;;
46597;SDS011;32318;48.858;8.252;2022-11-24T04:17:15;19.38;;;2.25;;
46597;SDS011;32318;48.858;8.252;2022-11-24T04:25:15;15.48;;;2.17;;
46597;SDS011;32318;48.858;8.252;2022-11-24T04:33:16;19.83;;;2.30;;
46597;SDS011;32318;48.858;8.252;2022-11-24T04:41:16;14.18;;;2.03;;
46597;SDS011;32318;48.858;8.252;2022-11-24T04:49:16;16.65;;;2.45;;
46597;SDS011;32318;48.858;8.252;2022-11-24T04:57:18;20.42;;;2.63;;
46597;SDS011;32318;48.858;8.252;2022-11-24T05:05:22;22.33;;;2.45;;
46597;SDS011;32318;48.858;8.252;2022-11-24T05:13:22;26.80;;;2.97;;
46597;SDS011;32318;48.858;8.252;2022-11-24T05:21:22;24.52;;;2.97;;
46597;SDS011;32318;48.858;8.252;2022-11-24T05:29:22;31.48;;;3.17;;
46597;SDS011;32318;48.858;8.252;2022-11-24T05:37:23;19.20;;;3.88;;
46597;SDS011;32318;48.858;8.252;2022-11-24T05:45:24;29.27;;;4.35;;
46597;SDS011;32318;48.858;8.252;2022-11-24T05:53:27;29.67;;;4.97;;
46597;SDS011;32318;48.858;8.252;2022-11-24T06:01:28;27.08;;;3.00;;
46597;SDS011;32318;48.858;8.252;2022-11-24T06:09:28;27.92;;;4.18;;
46597;SDS011;32318;48.858;8.252;2022-11-24T06:17:28;32.60;;;3.83;;
46597;SDS011;32318;48.858;8.252;2022-11-24T06:25:29;27.67;;;4.07;;
46597;SDS011;32318;48.858;8.252;2022-11-24T06:33:36;38.40;;;3.90;;
46597;SDS011;32318;48.858;8.252;2022-11-24T06:41:36;27.02;;;3.15;;
46597;SDS011;32318;48.858;8.252;2022-11-24T06:49:37;32.22;;;6.40;;
46597;SDS011;32318;48.858;8.252;2022-11-24T06:57:37;31.00;;;3.30;;
46597;SDS011;32318;48.858;8.252;2022-11-24T07:05:41;20.60;;;3.08;;
46597;SDS011;32318;48.858;8.252;2022-11-24T07:13:43;15.65;;;2.05;;
46597;SDS011;32318;48.858;8.252;2022-11-24T07:21:44;10.65;;;1.98;;
46597;SDS011;32318;48.858;8.252;2022-11-24T07:29:44;14.95;;;2.17;;
46597;SDS011;32318;48.858;8.252;2022-11-24T07:37:45;11.35;;;1.65;;
46597;SDS011;32318;48.858;8.252;2022-11-24T07:45:50;13.07;;;2.42;;
46597;SDS011;32318;48.858;8.252;2022-11-24T07:53:51;8.33;;;2.17;;
46597;SDS011;32318;48.858;8.252;2022-11-24T08:01:51;12.57;;;1.40;;
46597;SDS011;32318;48.858;8.252;2022-11-24T08:09:51;15.68;;;2.10;;
46597;SDS011;32318;48.858;8.252;2022-11-24T08:17:51;8.98;;;1.38;;
46597;SDS011;32318;48.858;8.252;2022-11-24T08:25:52;6.85;;;1.50;;
46597;SDS011;32318;48.858;8.252;2022-11-24T08:33:54;7.90;;;2.17;;
46597;SDS011;32318;48.858;8.252;2022-11-24T08:41:54;8.38;;;1.90;;
46597;SDS011;32318;48.858;8.252;2022-11-24T08:49:55;9.02;;;1.33;;
46597;SDS011;32318;48.858;8.252;2022-11-24T08:57:55;11.30;;;1.92;;
46597;SDS011;32318;48.858;8.252;2022-11-24T09:05:55;8.88;;;1.60;;
46597;SDS011;32318;48.858;8.252;2022-11-24T09:13:55;13.55;;;1.75;;
46597;SDS011;32318;48.858;8.252;2022-11-24T09:21:56;20.73;;;2.85;;
46597;SDS011;32318;48.858;8.252;2022-11-24T09:29:56;11.93;;;1.98;;
46597;SDS011;32318;48.858;8.252;2022-11-24T09:37:57;17.20;;;2.85;;
46597;SDS011;32318;48.858;8.252;2022-11-24T09:46:03;15.85;;;2.40;;
46597;SDS011;32318;48.858;8.252;2022-11-24T09:54:13;18.05;;;3.67;;
46597;SDS011;32318;48.858;8.252;2022-11-24T10:10:19;14.38;;;2.53;;
46597;SDS011;32318;48.858;8.252;2022-11-24T10:26:34;30.83;;;3.13;;
46597;SDS011;32318;48.858;8.252;2022-11-24T10:34:36;20.45;;;3.10;;
46597;SDS011;32318;48.858;8.252;2022-11-24T10:42:40;22.13;;;2.90;;
46597;SDS011;32318;48.858;8.252;2022-11-24T10:50:41;25.33;;;3.55;;
46597;SDS011;32318;48.858;8.252;2022-11-24T10:58:42;19.20;;;3.63;;
46597;SDS011;32318;48.858;8.252;2022-11-24T11:06:42;23.88;;;4.00;;
46597;SDS011;32318;48.858;8.252;2022-11-24T11:14:42;25.50;;;3.28;;
46597;SDS011;32318;48.858;8.252;2022-11-24T11:22:44;36.70;;;5.45;;
46597;SDS011;32318;48.858;8.252;2022-11-24T11:31:03;30.65;;;4.72;;
46597;SDS011;32318;48.858;8.252;2022-11-24T11:39:05;29.10;;;3.75;;
46597;SDS011;32318;48.858;8.252;2022-11-24T11:47:13;21.15;;;2.65;;
46597;SDS011;32318;48.858;8.252;2022-11-24T11:55:24;25.33;;;3.13;;
46597;SDS011;32318;48.858;8.252;2022-11-24T12:37:34;16.77;;;2.97;;
46597;SDS011;32318;48.858;8.252;2022-11-24T12:54:13;20.42;;;2.83;;
46597;SDS011;32318;48.858;8.252;2022-11-24T13:02:22;15.15;;;2.20;;
46597;SDS011;32318;48.858;8.252;2022-11-24T13:10:43;24.53;;;3.30;;
46597;SDS011;32318;48.858;8.252;2022-11-24T13:26:46;18.85;;;1.85;;
46597;SDS011;32318;48.858;8.252;2022-11-24T13:58:57;13.75;;;1.95;;
46597;SDS011;32318;48.858;8.252;2022-11-24T14:07:01;16.42;;;2.15;;
46597;SDS011;32318;48.858;8.252;2022-11-24T14:15:24;16.00;;;2.10;;
46597;SDS011;32318;48.858;8.252;2022-11-24T14:23:27;23.63;;;2.63;;
46597;SDS011;32318;48.858;8.252;2022-11-24T14:31:27;20.38;;;2.33;;
46597;SDS011;32318;48.858;8.252;2022-11-24T14:39:28;17.30;;;2.80;;
46597;SDS011;32318;48.858;8.252;2022-11-24T14:47:33;20.08;;;2.15;;
46597;SDS011;32318;48.858;8.252;2022-11-24T14:55:36;19.90;;;3.58;;
46597;SDS011;32318;48.858;8.252;2022-11-24T15:03:38;14.98;;;2.15;;
46597;SDS011;32318;48.858;8.252;2022-11-24T15:11:38;12.10;;;2.40;;
46597;SDS011;32318;48.858;8.252;2022-11-24T15:19:38;16.77;;;3.00;;
46597;SDS011;32318;48.858;8.252;2022-11-24T15:27:39;11.25;;;2.85;;
46597;SDS011;32318;48.858;8.252;2022-11-24T15:35:39;19.80;;;2.42;;
46597;SDS011;32318;48.858;8.252;2022-11-24T15:43:39;18.48;;;4.57;;
46597;SDS011;32318;48.858;8.252;2022-11-24T15:51:41;19.55;;;4.38;;
46597;SDS011;32318;48.858;8.252;2022-11-24T15:59:43;17.52;;;2.72;;
46597;SDS011;32318;48.858;8.252;2022-11-24T16:07:44;13.93;;;3.15;;
46597;SDS011;32318;48.858;8.252;2022-11-24T16:15:44;28.35;;;4.45;;
46597;SDS011;32318;48.858;8.252;2022-11-24T16:23:45;15.07;;;4.13;;
46597;SDS011;32318;48.858;8.252;2022-11-24T16:31:46;16.65;;;3.92;;
46597;SDS011;32318;48.858;8.252;2022-11-24T16:39:47;25.55;;;4.85;;
46597;SDS011;32318;48.858;8.252;2022-11-24T16:47:47;19.50;;;4.30;;
46597;SDS011;32318;48.858;8.252;2022-11-24T16:55:55;15.30;;;4.38;;
46597;SDS011;32318;48.858;8.252;2022-11-24T17:03:56;21.17;;;4.32;;
46597;SDS011;32318;48.858;8.252;2022-11-24T17:11:56;19.42;;;4.40;;
46597;SDS011;32318;48.858;8.252;2022-11-24T17:19:57;11.68;;;3.90;;
46597;SDS011;32318;48.858;8.252;2022-11-24T17:27:57;22.05;;;3.70;;
46597;SDS011;32318;48.858;8.252;2022-11-24T17:36:01;14.80;;;3.50;;
46597;SDS011;32318;48.858;8.252;2022-11-24T17:44:02;12.05;;;3.70;;
46597;SDS011;32318;48.858;8.252;2022-11-24T17:52:03;21.17;;;3.70;;
46597;SDS011;32318;48.858;8.252;2022-11-24T18:00:04;18.93;;;5.43;;
46597;SDS011;32318;48.858;8.252;2022-11-24T18:08:05;23.08;;;4.90;;
46597;SDS011;32318;48.858;8.252;2022-11-24T18:16:06;18.80;;;5.15;;
46597;SDS011;32318;48.858;8.252;2022-11-24T18:24:08;25.20;;;6.63;;
46597;SDS011;32318;48.858;8.252;2022-11-24T18:32:09;13.80;;;4.13;;
46597;SDS011;32318;48.858;8.252;2022-11-24T18:40:09;23.08;;;4.60;;
46597;SDS011;32318;48.858;8.252;2022-11-24T18:48:10;15.52;;;3.90;;
46597;SDS011;32318;48.858;8.252;2022-11-24T18:56:12;17.30;;;4.63;;
46597;SDS011;32318;48.858;8.252;2022-11-24T19:04:16;25.75;;;5.00;;
46597;SDS011;32318;48.858;8.252;2022-11-24T19:12:17;13.60;;;3.97;;
46597;SDS011;32318;48.858;8.252;2022-11-24T19:20:17;17.00;;;4.05;;
46597;SDS011;32318;48.858;8.252;2022-11-24T19:28:17;15.95;;;4.45;;
46597;SDS011;32318;48.858;8.252;2022-11-24T19:36:18;19.60;;;4.88;;
46597;SDS011;32318;48.858;8.252;2022-11-24T19:44:20;19.95;;;4.75;;
46597;SDS011;32318;48.858;8.252;2022-11-24T19:52:20;20.58;;;4.65;;
46597;SDS011;32318;48.858;8.252;2022-11-24T20:00:21;21.15;;;4.90;;
46597;SDS011;32318;48.858;8.252;2022-11-24T20:08:22;17.02;;;4.78;;
46597;SDS011;32318;48.858;8.252;2022-11-24T20:16:23;17.42;;;4.68;;
46597;SDS011;32318;48.858;8.252;2022-11-24T20:24:26;15.25;;;4.78;;
46597;SDS011;32318;48.858;8.252;2022-11-24T20:32:27;16.27;;;4.25;;
46597;SDS011;32318;48.858;8.252;2022-11-24T20:40:27;17.67;;;4.75;;
46597;SDS011;32318;48.858;8.252;2022-11-24T20:48:28;19.50;;;4.22;;
46597;SDS011;32318;48.858;8.252;2022-11-24T20:56:30;15.38;;;3.70;;
46597;SDS011;32318;48.858;8.252;2022-11-24T21:04:32;14.25;;;3.80;;
46597;SDS011;32318;48.858;8.252;2022-11-24T21:12:35;24.10;;;3.45;;
46597;SDS011;32318;48.858;8.252;2022-11-24T21:20:35;15.52;;;3.60;;
46597;SDS011;32318;48.858;8.252;2022-11-24T21:28:38;17.50;;;5.22;;
46597;SDS011;32318;48.858;8.252;2022-11-24T21:36:48;17.00;;;3.92;;
46597;SDS011;32318;48.858;8.252;2022-11-24T21:44:48;16.05;;;3.38;;
46597;SDS011;32318;48.858;8.252;2022-11-24T21:52:48;11.93;;;3.30;;
46597;SDS011;32318;48.858;8.252;2022-11-24T22:00:49;9.85;;;2.97;;
46597;SDS011;32318;48.858;8.252;2022-11-24T22:08:49;13.48;;;3.25;;
46597;SDS011;32318;48.858;8.252;2022-11-24T22:16:50;12.13;;;3.15;;
46597;SDS011;32318;48.858;8.252;2022-11-24T22:24:50;10.23;;;2.47;;
46597;SDS011;32318;48.858;8.252;2022-11-24T22:32:51;16.10;;;2.83;;
46597;SDS011;32318;48.858;8.252;2022-11-24T22:40:53;13.00;;;3.38;;
46597;SDS011;32318;48.858;8.252;2022-11-24T22:48:53;12.70;;;2.97;;
46597;SDS011;32318;48.858;8.252;2022-11-24T22:56:56;9.05;;;2.60;;
46597;SDS011;32318;48.858;8.252;2022-11-24T23:04:56;16.83;;;3.13;;
46597;SDS011;32318;48.858;8.252;2022-11-24T23:12:56;9.82;;;3.03;;
46597;SDS011;32318;48.858;8.252;2022-11-24T23:21:02;14.35;;;4.60;;
46597;SDS011;32318;48.858;8.252;2022-11-24T23:29:04;17.13;;;4.15;;
46597;SDS011;32318;48.858;8.252;2022-11-24T23:37:05;18.15;;;4.88;;
46597;SDS011;32318;48.858;8.252;2022-11-24T23:45:05;20.50;;;6.57;;
46597;SDS011;32318;48.858;8.252;2022-11-24T23:53:06;24.70;;;6.97;;
